createdAt,value
2023-12-19T00:00:55.239Z,6.70
2023-12-19T00:08:52.119Z,6.70
2023-12-19T00:11:22.273Z,6.70
2023-12-19T00:13:51.694Z,6.70
2023-12-19T00:16:19.698Z,6.70
2023-12-19T00:18:48.066Z,6.70
2023-12-19T00:21:16.223Z,6.70
2023-12-19T00:23:44.286Z,6.70
2023-12-19T00:26:14.127Z,6.60
2023-12-19T00:28:43.025Z,6.70
2023-12-19T00:31:20.788Z,6.70
2023-12-19T00:33:49.561Z,7.00
2023-12-19T00:36:22.406Z,6.90
2023-12-19T00:38:51.530Z,6.70
2023-12-19T00:41:20.292Z,6.70
2023-12-19T00:43:48.722Z,6.70
2023-12-19T00:46:18.294Z,6.70
2023-12-19T00:48:47.100Z,6.70
2023-12-19T00:51:15.475Z,6.70
2023-12-19T00:53:43.444Z,6.60
2023-12-19T00:56:13.344Z,6.70
2023-12-19T00:58:42.140Z,6.60
2023-12-19T01:01:10.561Z,6.60
2023-12-19T01:03:40.080Z,6.80
2023-12-19T01:06:08.486Z,6.60
2023-12-19T01:08:37.496Z,6.60
2023-12-19T01:11:05.989Z,6.60
2023-12-19T01:13:34.128Z,6.60
2023-12-19T01:16:02.287Z,6.70
2023-12-19T01:18:30.524Z,6.60
2023-12-19T01:20:59.944Z,6.70
2023-12-19T01:23:27.972Z,6.60
2023-12-19T01:25:55.960Z,6.60
2023-12-19T01:28:24.149Z,6.60
2023-12-19T01:30:52.600Z,6.60
2023-12-19T01:33:20.744Z,6.60
2023-12-19T01:35:48.823Z,6.60
2023-12-19T01:38:18.180Z,6.60
2023-12-19T01:40:46.317Z,6.60
2023-12-19T01:43:21.244Z,6.60
2023-12-19T01:45:52.609Z,6.60
2023-12-19T01:48:22.100Z,6.50
2023-12-19T01:50:50.472Z,6.60
2023-12-19T01:53:21.906Z,6.60
2023-12-19T01:55:52.800Z,6.60
2023-12-19T01:58:22.443Z,6.60
2023-12-19T02:00:51.506Z,6.60
2023-12-19T02:03:20.013Z,6.60
2023-12-19T02:05:52.373Z,6.60
2023-12-19T02:08:22.584Z,6.60
2023-12-19T02:10:50.640Z,6.60
2023-12-19T02:13:18.768Z,6.60
2023-12-19T02:15:46.861Z,6.60
2023-12-19T02:18:16.065Z,6.60
2023-12-19T02:20:44.303Z,6.60
2023-12-19T02:23:13.983Z,6.60
2023-12-19T02:25:42.225Z,6.50
2023-12-19T02:28:10.740Z,6.50
2023-12-19T02:30:41.177Z,6.50
2023-12-19T02:33:11.521Z,6.70
2023-12-19T02:35:39.625Z,6.50
2023-12-19T02:38:07.641Z,6.50
2023-12-19T02:40:37.089Z,6.50
2023-12-19T02:43:05.580Z,6.50
2023-12-19T02:45:35.451Z,6.50
2023-12-19T02:48:03.727Z,6.50
2023-12-19T02:50:31.895Z,6.50
2023-12-19T02:52:59.972Z,6.50
2023-12-19T02:55:27.976Z,6.60
2023-12-19T02:57:57.436Z,6.50
2023-12-19T03:00:25.651Z,6.50
2023-12-19T03:02:54.041Z,6.50
2023-12-19T03:05:22.103Z,6.50
2023-12-19T03:07:50.675Z,6.50
2023-12-19T03:10:18.995Z,6.50
2023-12-19T03:12:47.249Z,6.50
2023-12-19T03:15:16.879Z,6.50
2023-12-19T03:17:44.862Z,6.50
2023-12-19T03:20:13.196Z,6.50
2023-12-19T03:22:41.337Z,6.50
2023-12-19T03:25:10.196Z,6.50
2023-12-19T03:27:38.179Z,6.50
2023-12-19T03:30:07.347Z,6.40
2023-12-19T03:32:38.763Z,6.40
2023-12-19T03:35:08.152Z,6.40
2023-12-19T03:37:36.187Z,6.40
2023-12-19T03:40:04.891Z,6.40
2023-12-19T03:42:39.252Z,6.40
2023-12-19T03:45:09.242Z,6.40
2023-12-19T03:47:40.023Z,6.40
2023-12-19T03:50:09.357Z,6.40
2023-12-19T03:52:37.912Z,6.40
2023-12-19T03:55:07.887Z,6.30
2023-12-19T03:57:35.891Z,6.30
2023-12-19T04:00:04.614Z,6.30
2023-12-19T04:02:32.635Z,6.30
2023-12-19T04:05:02.039Z,6.30
2023-12-19T04:07:30.068Z,6.30
2023-12-19T04:09:58.147Z,6.30
2023-12-19T04:12:26.263Z,6.20
2023-12-19T04:14:54.261Z,6.20
2023-12-19T04:17:22.891Z,6.20
2023-12-19T04:19:51.147Z,6.20
2023-12-19T04:22:20.635Z,6.30
2023-12-19T04:24:48.691Z,6.20
2023-12-19T04:27:16.788Z,6.20
2023-12-19T04:29:46.965Z,6.20
2023-12-19T04:32:15.558Z,6.20
2023-12-19T04:34:43.617Z,6.40
2023-12-19T04:37:11.932Z,6.20
2023-12-19T04:39:41.410Z,6.20
2023-12-19T04:42:09.657Z,6.20
2023-12-19T04:44:38.035Z,6.20
2023-12-19T04:47:06.289Z,6.20
2023-12-19T04:49:34.775Z,6.20
2023-12-19T04:52:03.190Z,6.20
2023-12-19T04:54:31.449Z,6.20
2023-12-19T04:57:00.840Z,6.20
2023-12-19T04:59:28.937Z,6.20
2023-12-19T05:01:57.420Z,6.20
2023-12-19T05:04:25.448Z,6.20
2023-12-19T05:06:53.820Z,6.20
2023-12-19T05:09:22.047Z,6.20
2023-12-19T05:11:50.339Z,6.20
2023-12-19T05:14:19.729Z,6.20
2023-12-19T05:16:47.879Z,6.20
2023-12-19T05:19:15.977Z,6.20
2023-12-19T05:21:44.073Z,6.20
2023-12-19T05:24:12.103Z,6.20
2023-12-19T05:26:40.132Z,6.20
2023-12-19T05:29:08.174Z,6.30
2023-12-19T05:31:37.741Z,6.20
2023-12-19T05:34:06.244Z,6.20
2023-12-19T05:36:39.223Z,6.20
2023-12-19T05:39:09.122Z,6.20
2023-12-19T05:41:37.153Z,6.10
2023-12-19T05:44:05.559Z,6.20
2023-12-19T05:46:34.119Z,6.20
2023-12-19T05:49:04.252Z,6.20
2023-12-19T05:51:32.508Z,6.20
2023-12-19T05:54:01.319Z,6.20
2023-12-19T05:56:29.451Z,6.20
2023-12-19T05:58:57.471Z,6.20
2023-12-19T06:01:25.694Z,6.20
2023-12-19T06:03:54.105Z,6.20
2023-12-19T06:06:23.935Z,6.20
2023-12-19T06:08:51.974Z,6.20
2023-12-19T06:11:27.785Z,6.20
2023-12-19T06:13:55.951Z,6.20
2023-12-19T06:16:24.019Z,6.20
2023-12-19T06:18:52.321Z,6.20
2023-12-19T06:21:20.554Z,6.20
2023-12-19T06:23:50.471Z,6.10
2023-12-19T06:26:18.777Z,6.20
2023-12-19T06:28:46.864Z,6.20
2023-12-19T06:31:15.444Z,6.20
2023-12-19T06:33:44.605Z,6.10
2023-12-19T06:36:28.129Z,6.20
2023-12-19T06:38:57.697Z,6.20
2023-12-19T06:41:25.789Z,6.20
2023-12-19T06:43:54.024Z,6.20
2023-12-19T06:46:22.238Z,6.20
2023-12-19T06:48:50.493Z,6.30
2023-12-19T06:51:26.102Z,6.20
2023-12-19T06:53:56.640Z,6.40
2023-12-19T06:56:28.628Z,6.20
2023-12-19T06:58:57.180Z,6.20
2023-12-19T07:01:27.035Z,6.20
2023-12-19T07:03:55.554Z,6.20
2023-12-19T07:06:23.855Z,6.20
2023-12-19T07:08:53.623Z,6.20
2023-12-19T07:11:23.176Z,6.20
2023-12-19T07:13:53.701Z,6.20
2023-12-19T07:16:23.160Z,6.20
2023-12-19T07:18:52.033Z,6.20
2023-12-19T07:21:24.477Z,6.10
2023-12-19T07:23:53.338Z,6.10
2023-12-19T07:26:23.101Z,6.10
2023-12-19T07:28:53.406Z,6.20
2023-12-19T07:31:25.508Z,6.10
2023-12-19T07:33:57.176Z,6.10
2023-12-19T07:36:25.392Z,6.10
2023-12-19T07:38:54.169Z,6.10
2023-12-19T07:41:24.128Z,6.10
2023-12-19T07:43:53.623Z,6.10
2023-12-19T07:46:21.761Z,6.20
2023-12-19T07:48:49.925Z,6.20
2023-12-19T07:51:18.308Z,6.20
2023-12-19T07:53:46.317Z,6.10
2023-12-19T07:56:14.664Z,6.10
2023-12-19T07:58:42.774Z,6.20
2023-12-19T08:01:14.485Z,6.20
2023-12-19T08:03:44.210Z,6.20
2023-12-19T08:06:12.635Z,6.20
2023-12-19T08:08:40.996Z,6.20
2023-12-19T08:11:09.961Z,6.20
2023-12-19T08:13:38.624Z,6.20
2023-12-19T08:16:07.893Z,6.20
2023-12-19T08:18:37.876Z,6.20
2023-12-19T08:21:06.495Z,6.20
2023-12-19T08:23:34.546Z,6.20
2023-12-19T08:26:02.601Z,6.20
2023-12-19T08:28:30.710Z,6.20
2023-12-19T08:30:58.970Z,6.20
2023-12-19T08:33:27.192Z,6.20
2023-12-19T08:35:56.717Z,6.20
2023-12-19T08:38:24.711Z,6.20
2023-12-19T08:40:52.893Z,6.20
2023-12-19T08:43:21.491Z,6.30
2023-12-19T08:45:49.987Z,6.30
2023-12-19T08:48:18.894Z,6.30
2023-12-19T08:50:47.385Z,6.30
2023-12-19T08:53:16.794Z,6.30
2023-12-19T08:55:47.629Z,6.30
2023-12-19T08:58:15.996Z,6.30
2023-12-19T09:00:44.393Z,6.30
2023-12-19T09:03:12.426Z,6.30
2023-12-19T09:05:40.605Z,6.30
2023-12-19T09:08:09.254Z,6.30
2023-12-19T09:10:38.804Z,6.50
2023-12-19T09:13:07.010Z,6.40
2023-12-19T09:15:36.383Z,6.20
2023-12-19T09:18:05.089Z,6.40
2023-12-19T09:20:33.159Z,6.40
2023-12-19T09:23:01.984Z,6.40
2023-12-19T09:25:30.511Z,6.40
2023-12-19T09:27:59.975Z,6.40
2023-12-19T09:30:28.142Z,6.40
2023-12-19T09:32:56.651Z,6.40
2023-12-19T09:35:24.759Z,6.40
2023-12-19T09:37:52.826Z,6.40
2023-12-19T09:40:28.392Z,6.50
2023-12-19T09:42:56.615Z,6.60
2023-12-19T09:45:26.298Z,6.50
2023-12-19T09:48:01.619Z,6.50
2023-12-19T09:50:30.912Z,6.50
2023-12-19T09:53:00.967Z,6.50
2023-12-19T09:55:30.246Z,6.60
2023-12-19T09:57:59.981Z,6.70
2023-12-19T10:00:33.846Z,6.60
2023-12-19T10:03:02.054Z,6.60
2023-12-19T10:05:30.674Z,6.60
2023-12-19T10:07:59.369Z,6.90
2023-12-19T10:10:51.335Z,6.70
2023-12-19T10:13:28.384Z,6.70
2023-12-19T10:16:29.706Z,6.70
2023-12-19T10:18:58.908Z,6.80
2023-12-19T10:21:30.983Z,6.80
2023-12-19T10:24:09.326Z,6.80
2023-12-19T10:26:37.688Z,6.90
2023-12-19T10:29:06.087Z,7.00
2023-12-19T10:31:36.928Z,7.00
2023-12-19T10:34:07.239Z,6.90
2023-12-19T10:36:36.549Z,6.90
2023-12-19T10:39:07.327Z,7.00
2023-12-19T10:41:39.450Z,6.90
2023-12-19T10:44:09.136Z,6.90
2023-12-19T10:46:40.235Z,6.90
2023-12-19T10:49:08.584Z,6.90
2023-12-19T10:51:38.541Z,7.00
2023-12-19T10:54:10.783Z,7.20
2023-12-19T10:56:55.519Z,6.90
2023-12-19T10:59:32.183Z,6.90
2023-12-19T11:02:06.341Z,6.90
2023-12-19T11:04:43.020Z,6.90
2023-12-19T11:07:14.270Z,6.80
2023-12-19T11:09:44.885Z,6.80
2023-12-19T11:12:13.708Z,6.80
2023-12-19T11:14:42.976Z,6.80
2023-12-19T11:17:17.549Z,7.10
2023-12-19T11:19:50.465Z,6.90
2023-12-19T11:22:27.365Z,6.80
2023-12-19T11:25:04.306Z,6.80
2023-12-19T11:27:38.406Z,6.80
2023-12-19T11:30:07.706Z,6.80
2023-12-19T11:32:42.654Z,6.80
2023-12-19T11:35:12.754Z,6.80
2023-12-19T11:37:43.068Z,6.80
2023-12-19T11:40:12.256Z,6.80
2023-12-19T11:42:50.639Z,6.80
2023-12-19T11:45:41.608Z,7.00
2023-12-19T11:48:39.402Z,6.80
2023-12-19T11:51:10.810Z,6.80
2023-12-19T11:53:39.148Z,6.80
2023-12-19T11:56:10.410Z,6.80
2023-12-19T11:58:39.242Z,6.80
2023-12-19T12:01:10.245Z,6.80
2023-12-19T12:03:39.960Z,6.80
2023-12-19T12:06:10.021Z,6.80
2023-12-19T12:08:38.659Z,6.80
2023-12-19T12:11:09.258Z,6.90
2023-12-19T12:13:39.195Z,6.80
2023-12-19T12:16:08.706Z,6.80
2023-12-19T12:18:37.054Z,6.80
2023-12-19T12:21:11.455Z,6.80
2023-12-19T12:23:39.506Z,6.80
2023-12-19T12:26:09.958Z,6.80
2023-12-19T12:28:38.396Z,6.80
2023-12-19T12:31:08.128Z,6.80
2023-12-19T12:33:38.205Z,6.80
2023-12-19T12:36:13.263Z,6.80
2023-12-19T12:38:41.517Z,6.80
2023-12-19T12:41:11.202Z,6.80
2023-12-19T12:43:41.613Z,6.80
2023-12-19T12:46:12.845Z,6.70
2023-12-19T12:48:43.068Z,6.80
2023-12-19T12:51:13.537Z,6.70
2023-12-19T12:53:41.652Z,6.70
2023-12-19T12:56:13.574Z,6.60
2023-12-19T12:58:42.311Z,6.70
2023-12-19T13:01:11.174Z,6.60
2023-12-19T13:03:39.764Z,6.60
2023-12-19T13:06:09.283Z,6.60
2023-12-19T13:08:38.882Z,6.60
2023-12-19T13:11:09.677Z,6.60
2023-12-19T13:13:38.303Z,6.60
2023-12-19T13:16:08.399Z,6.60
2023-12-19T13:18:38.210Z,6.60
2023-12-19T13:21:08.678Z,6.60
2023-12-19T13:23:38.116Z,6.60
2023-12-19T13:26:06.591Z,6.60
2023-12-19T13:28:34.700Z,6.60
2023-12-19T13:31:05.534Z,6.60
2023-12-19T13:33:34.014Z,6.80
2023-12-19T13:36:02.591Z,6.60
2023-12-19T13:38:30.697Z,6.60
2023-12-19T13:41:01.964Z,6.60
2023-12-19T13:43:31.132Z,6.60
2023-12-19T13:46:00.112Z,6.60
2023-12-19T13:48:28.666Z,6.60
2023-12-19T13:50:57.720Z,6.60
2023-12-19T13:53:25.960Z,6.60
2023-12-19T13:55:53.980Z,6.60
2023-12-19T13:58:24.116Z,6.60
2023-12-19T14:00:53.120Z,6.60
2023-12-19T14:03:21.338Z,6.60
2023-12-19T14:05:49.476Z,6.50
2023-12-19T14:08:19.620Z,6.50
2023-12-19T14:10:47.928Z,6.50
2023-12-19T14:13:17.538Z,6.50
2023-12-19T14:15:48.749Z,6.50
2023-12-19T14:18:17.119Z,6.60
2023-12-19T14:20:45.716Z,6.50
2023-12-19T14:23:13.698Z,6.50
2023-12-19T14:25:41.833Z,6.50
2023-12-19T14:28:09.914Z,6.50
2023-12-19T14:30:38.764Z,6.50
2023-12-19T14:33:09.321Z,6.50
2023-12-19T14:35:39.874Z,6.50
2023-12-19T14:38:10.249Z,6.50
2023-12-19T14:40:38.493Z,6.50
2023-12-19T14:43:06.966Z,6.40
2023-12-19T14:45:35.074Z,6.40
2023-12-19T14:48:03.424Z,6.40
2023-12-19T14:50:32.981Z,6.50
2023-12-19T14:53:01.081Z,6.50
2023-12-19T14:55:35.826Z,6.40
2023-12-19T14:58:04.348Z,6.40
2023-12-19T15:00:32.580Z,6.40
2023-12-19T15:03:00.623Z,6.40
2023-12-19T15:05:29.553Z,6.40
2023-12-19T15:07:59.085Z,6.40
2023-12-19T15:10:27.161Z,6.40
2023-12-19T15:12:55.222Z,6.40
2023-12-19T15:15:24.975Z,6.40
2023-12-19T15:17:54.982Z,6.50
2023-12-19T15:20:23.730Z,6.50
2023-12-19T15:22:51.732Z,6.50
2023-12-19T15:25:21.242Z,6.40
2023-12-19T15:27:49.481Z,6.50
2023-12-19T15:30:19.470Z,6.50
2023-12-19T15:32:48.010Z,6.50
2023-12-19T15:35:16.482Z,6.50
2023-12-19T15:37:44.840Z,6.50
2023-12-19T15:40:14.191Z,6.50
2023-12-19T15:42:44.051Z,6.50
2023-12-19T15:45:12.959Z,6.60
2023-12-19T15:47:41.042Z,6.50
2023-12-19T15:50:09.655Z,6.50
2023-12-19T15:52:39.396Z,6.50
2023-12-19T15:55:08.446Z,6.50
2023-12-19T15:57:36.534Z,6.50
2023-12-19T16:00:08.047Z,6.50
2023-12-19T16:02:45.587Z,6.50
2023-12-19T16:05:17.406Z,6.50
2023-12-19T16:07:46.381Z,6.50
2023-12-19T16:10:14.712Z,6.50
2023-12-19T16:12:43.285Z,6.50
2023-12-19T16:15:13.626Z,6.50
2023-12-19T16:17:41.662Z,6.50
2023-12-19T16:20:11.358Z,6.50
2023-12-19T16:22:40.598Z,6.50
2023-12-19T16:25:10.308Z,6.50
2023-12-19T16:27:38.553Z,6.50
2023-12-19T16:30:07.791Z,6.50
2023-12-19T16:32:37.300Z,6.50
2023-12-19T16:35:05.965Z,6.50
2023-12-19T16:37:34.089Z,6.50
2023-12-19T16:40:03.326Z,6.60
2023-12-19T16:42:32.768Z,6.50
2023-12-19T16:45:01.007Z,6.50
2023-12-19T16:47:29.171Z,6.50
2023-12-19T16:50:00.290Z,6.50
2023-12-19T16:52:28.660Z,6.50
2023-12-19T16:54:57.712Z,6.50
2023-12-19T16:57:26.768Z,6.50
2023-12-19T16:59:54.760Z,6.50
2023-12-19T17:02:22.933Z,6.50
2023-12-19T17:04:51.099Z,6.50
2023-12-19T17:07:20.553Z,6.60
2023-12-19T17:09:48.612Z,6.50
2023-12-19T17:12:16.887Z,6.50
2023-12-19T17:14:44.894Z,6.50
2023-12-19T17:17:12.974Z,6.50
2023-12-19T17:19:41.041Z,6.50
2023-12-19T17:22:09.352Z,6.50
2023-12-19T17:24:41.203Z,6.50
2023-12-19T17:27:09.516Z,6.40
2023-12-19T17:29:37.522Z,6.50
2023-12-19T17:32:06.267Z,6.50
2023-12-19T17:34:34.409Z,6.50
2023-12-19T17:37:02.600Z,6.50
2023-12-19T17:39:31.649Z,6.50
2023-12-19T17:42:01.168Z,6.50
2023-12-19T17:44:29.205Z,6.60
2023-12-19T17:46:57.484Z,6.40
2023-12-19T17:49:25.732Z,6.50
2023-12-19T17:51:54.247Z,6.50
2023-12-19T17:54:22.352Z,6.50
2023-12-19T17:56:50.568Z,6.50
2023-12-19T17:59:20.065Z,6.50
2023-12-19T18:01:48.384Z,6.50
2023-12-19T18:04:17.288Z,6.50
2023-12-19T18:06:45.772Z,6.50
2023-12-19T18:09:15.265Z,6.50
2023-12-19T18:11:43.442Z,6.50
2023-12-19T18:14:12.034Z,6.70
2023-12-19T18:16:41.380Z,6.50
2023-12-19T18:19:09.431Z,6.50
2023-12-19T18:21:37.481Z,6.50
2023-12-19T18:24:07.203Z,6.50
2023-12-19T18:26:36.097Z,6.50
2023-12-19T18:29:04.212Z,6.50
2023-12-19T18:31:32.310Z,6.50
2023-12-19T18:34:01.826Z,6.60
2023-12-19T18:36:29.879Z,6.50
2023-12-19T18:38:57.936Z,6.40
2023-12-19T18:41:26.099Z,6.50
2023-12-19T18:43:55.048Z,6.60
2023-12-19T18:46:23.411Z,6.60
2023-12-19T18:48:52.531Z,6.50
2023-12-19T18:51:22.119Z,6.50
2023-12-19T18:53:50.718Z,6.50
2023-12-19T18:56:19.260Z,6.50
2023-12-19T18:58:47.257Z,6.50
2023-12-19T19:01:15.523Z,6.50
2023-12-19T19:03:43.789Z,6.50
2023-12-19T19:06:12.346Z,6.50
2023-12-19T19:08:40.822Z,6.50
2023-12-19T19:11:09.663Z,6.50
2023-12-19T19:13:37.668Z,6.50
2023-12-19T19:16:07.029Z,6.50
2023-12-19T19:18:35.429Z,6.50
2023-12-19T19:21:03.437Z,6.40
2023-12-19T19:23:31.689Z,6.50
2023-12-19T19:26:04.217Z,6.60
2023-12-19T19:28:32.987Z,6.50
2023-12-19T19:31:01.322Z,6.50
2023-12-19T19:33:33.095Z,6.50
2023-12-19T19:36:01.841Z,6.50
2023-12-19T19:38:31.216Z,6.50
2023-12-19T19:41:01.717Z,6.50
2023-12-19T19:43:30.357Z,6.50
2023-12-19T19:46:03.021Z,6.50
2023-12-19T19:48:31.394Z,6.50
2023-12-19T19:50:59.791Z,6.50
2023-12-19T19:53:27.923Z,6.50
2023-12-19T19:55:55.894Z,6.50
2023-12-19T19:58:25.483Z,6.60
2023-12-19T20:00:54.438Z,6.50
2023-12-19T20:03:22.493Z,6.50
2023-12-19T20:05:51.811Z,6.50
2023-12-19T20:08:20.310Z,6.50
2023-12-19T20:10:48.674Z,6.50
2023-12-19T20:13:16.886Z,6.50
2023-12-19T20:15:46.403Z,6.50
2023-12-19T20:18:15.665Z,6.50
2023-12-19T20:20:43.743Z,6.50
2023-12-19T20:23:15.110Z,6.50
2023-12-19T20:25:44.541Z,6.40
2023-12-19T20:28:12.945Z,6.50
2023-12-19T20:30:41.026Z,6.50
2023-12-19T20:33:10.624Z,6.50
2023-12-19T20:35:39.036Z,6.50
2023-12-19T20:38:07.270Z,6.50
2023-12-19T20:40:35.882Z,6.50
2023-12-19T20:43:05.416Z,6.50
2023-12-19T20:45:33.598Z,6.50
2023-12-19T20:48:01.803Z,6.50
2023-12-19T20:50:31.274Z,6.50
2023-12-19T20:52:59.704Z,6.50
2023-12-19T20:55:28.330Z,6.50
2023-12-19T20:57:56.975Z,6.50
2023-12-19T21:00:26.310Z,6.50
2023-12-19T21:02:54.681Z,6.60
2023-12-19T21:05:23.006Z,6.50
2023-12-19T21:07:52.504Z,6.50
2023-12-19T21:10:20.777Z,6.50
2023-12-19T21:12:49.498Z,6.50
2023-12-19T21:15:18.361Z,6.50
2023-12-19T21:17:46.560Z,6.50
2023-12-19T21:20:14.791Z,6.40
2023-12-19T21:22:43.198Z,6.50
2023-12-19T21:25:12.840Z,6.50
2023-12-19T21:27:40.915Z,6.50
2023-12-19T21:30:10.014Z,6.50
2023-12-19T21:32:41.162Z,6.50
2023-12-19T21:35:10.981Z,6.50
2023-12-19T21:37:39.633Z,6.50
2023-12-19T21:40:08.842Z,6.50
2023-12-19T21:42:38.350Z,6.50
2023-12-19T21:45:07.028Z,6.50
2023-12-19T21:47:35.134Z,6.50
2023-12-19T21:50:03.333Z,6.50
2023-12-19T21:52:31.512Z,6.60
2023-12-19T21:55:01.803Z,6.50
2023-12-19T21:57:32.456Z,6.50
2023-12-19T22:00:01.950Z,6.50
2023-12-19T22:02:30.236Z,6.50
2023-12-19T22:04:58.507Z,6.50
2023-12-19T22:07:27.014Z,6.50
2023-12-19T22:10:00.237Z,6.50
2023-12-19T22:12:31.345Z,6.50
2023-12-19T22:14:59.448Z,6.60
2023-12-19T22:17:28.900Z,6.50
2023-12-19T22:19:57.529Z,6.50
2023-12-19T22:22:25.938Z,6.50
2023-12-19T22:24:54.111Z,6.50
2023-12-19T22:27:22.120Z,6.50
2023-12-19T22:29:51.122Z,6.50
2023-12-19T22:32:19.171Z,6.50
2023-12-19T22:34:48.528Z,6.50
2023-12-19T22:37:16.650Z,6.50
2023-12-19T22:39:45.392Z,6.50
2023-12-19T22:42:13.643Z,6.50
2023-12-19T22:44:42.483Z,6.50
2023-12-19T22:47:10.684Z,6.50
2023-12-19T22:49:39.041Z,6.50
2023-12-19T22:52:09.080Z,6.50
2023-12-19T22:54:37.154Z,6.50
2023-12-19T22:57:05.944Z,6.50
2023-12-19T22:59:33.993Z,6.50
2023-12-19T23:02:02.133Z,6.50
2023-12-19T23:04:30.816Z,6.50
2023-12-19T23:06:58.956Z,6.50
2023-12-19T23:09:28.446Z,6.50
2023-12-19T23:11:56.437Z,6.50
2023-12-19T23:14:25.076Z,6.70
2023-12-19T23:16:53.540Z,6.60
2023-12-19T23:19:21.963Z,6.60
2023-12-19T23:21:50.167Z,6.60
2023-12-19T23:24:18.166Z,6.60
2023-12-19T23:26:46.514Z,6.60
2023-12-19T23:29:14.589Z,6.90
2023-12-19T23:31:43.426Z,6.60
2023-12-19T23:34:12.621Z,6.60
2023-12-19T23:36:40.853Z,6.60
2023-12-19T23:39:09.249Z,6.60
2023-12-19T23:41:37.591Z,6.60
2023-12-19T23:44:07.257Z,6.60
2023-12-19T23:46:35.223Z,6.60
2023-12-19T23:49:03.592Z,6.60
2023-12-19T23:51:31.749Z,6.60
2023-12-19T23:53:59.815Z,6.70
2023-12-19T23:56:28.208Z,6.60
2023-12-19T23:58:56.221Z,6.60
